createdAt,value
2022-12-28T00:01:46.347Z,7.73
2022-12-28T00:04:15.136Z,8.13
2022-12-28T00:06:41.873Z,13.73
2022-12-28T00:09:10.831Z,8.68
2022-12-28T00:11:37.952Z,12.70
2022-12-28T00:14:04.977Z,12.15
2022-12-28T00:16:36.975Z,12.53
2022-12-28T00:19:11.596Z,11.00
2022-12-28T00:21:38.545Z,12.73
2022-12-28T00:24:05.808Z,8.97
2022-12-28T00:26:34.808Z,8.63
2022-12-28T00:29:05.164Z,9.37
2022-12-28T00:31:33.955Z,10.65
2022-12-28T00:34:01.789Z,12.00
2022-12-28T00:37:08.482Z,8.30
2022-12-28T00:39:15.574Z,8.85
2022-12-28T00:41:42.307Z,9.47
2022-12-28T00:44:09.194Z,11.93
2022-12-28T00:46:37.295Z,15.47
2022-12-28T00:49:04.164Z,9.53
2022-12-28T00:51:30.893Z,12.37
2022-12-28T00:53:57.830Z,11.73
2022-12-28T00:56:24.582Z,11.10
2022-12-28T00:58:57.382Z,14.02
2022-12-28T01:01:25.741Z,14.43
2022-12-28T01:03:54.806Z,16.80
2022-12-28T01:06:21.640Z,14.70
2022-12-28T01:08:48.367Z,16.67
2022-12-28T01:11:24.023Z,19.42
2022-12-28T01:13:52.546Z,11.55
2022-12-28T01:16:25.153Z,14.88
2022-12-28T01:18:54.327Z,13.52
2022-12-28T01:21:23.797Z,17.58
2022-12-28T01:23:55.515Z,20.33
2022-12-28T01:26:22.954Z,16.83
2022-12-28T01:28:49.857Z,15.98
2022-12-28T01:31:18.856Z,18.52
2022-12-28T01:33:46.173Z,14.20
2022-12-28T01:36:17.489Z,11.98
2022-12-28T01:38:45.496Z,12.27
2022-12-28T01:41:18.153Z,10.60
2022-12-28T01:43:52.201Z,12.70
2022-12-28T01:46:28.213Z,13.60
2022-12-28T01:49:11.329Z,18.05
2022-12-28T01:51:48.436Z,17.25
2022-12-28T01:54:16.009Z,13.35
2022-12-28T01:56:44.155Z,17.05
2022-12-28T01:59:12.144Z,17.65
2022-12-28T02:01:39.395Z,17.27
2022-12-28T02:04:06.415Z,18.30
2022-12-28T02:06:33.203Z,18.23
2022-12-28T02:09:11.887Z,19.83
2022-12-28T02:11:38.635Z,18.02
2022-12-28T02:14:06.962Z,15.52
2022-12-28T02:16:33.898Z,13.85
2022-12-28T02:19:00.891Z,19.92
2022-12-28T02:21:42.945Z,16.20
2022-12-28T02:24:09.635Z,17.73
2022-12-28T02:26:50.633Z,16.00
2022-12-28T02:29:25.991Z,17.15
2022-12-28T02:32:06.335Z,17.20
2022-12-28T02:34:57.316Z,17.55
2022-12-28T02:37:34.561Z,14.15
2022-12-28T02:40:11.433Z,12.57
2022-12-28T02:42:40.092Z,16.38
2022-12-28T02:45:27.788Z,13.07
2022-12-28T02:48:13.015Z,14.95
2022-12-28T02:51:00.521Z,13.38
2022-12-28T02:53:47.252Z,16.25
2022-12-28T02:56:32.555Z,16.70
2022-12-28T02:59:23.491Z,15.25
2022-12-28T03:02:18.979Z,14.35
2022-12-28T03:05:18.655Z,17.08
2022-12-28T03:08:20.217Z,13.43
2022-12-28T03:10:59.627Z,12.43
2022-12-28T03:13:43.779Z,11.32
2022-12-28T03:16:31.893Z,11.90
2022-12-28T03:19:27.033Z,11.25
2022-12-28T03:22:15.265Z,14.35
2022-12-28T03:25:04.182Z,10.75
2022-12-28T03:27:52.632Z,11.80
2022-12-28T03:30:40.024Z,11.02
2022-12-28T03:33:09.013Z,13.23
2022-12-28T03:35:50.272Z,13.88
2022-12-28T03:38:28.651Z,11.85
2022-12-28T03:41:05.896Z,13.90
2022-12-28T03:43:43.500Z,14.02
2022-12-28T03:46:22.149Z,13.43
2022-12-28T03:48:50.088Z,10.93
2022-12-28T03:51:22.404Z,11.93
2022-12-28T03:53:49.608Z,13.73
2022-12-28T03:56:18.253Z,12.60
2022-12-28T03:58:45.620Z,12.80
2022-12-28T04:01:12.583Z,12.00
2022-12-28T04:03:40.255Z,10.18
2022-12-28T04:06:07.511Z,12.27
2022-12-28T04:08:34.623Z,9.70
2022-12-28T04:11:01.880Z,10.02
2022-12-28T04:13:30.823Z,11.93
2022-12-28T04:16:09.424Z,12.23
2022-12-28T04:18:36.317Z,11.60
2022-12-28T04:21:03.536Z,14.50
2022-12-28T04:23:32.057Z,14.52
2022-12-28T04:26:04.996Z,13.35
2022-12-28T04:28:32.556Z,12.40
2022-12-28T04:31:00.255Z,14.63
2022-12-28T04:33:27.206Z,14.80
2022-12-28T04:35:54.062Z,15.43
2022-12-28T04:38:21.695Z,16.25
2022-12-28T04:40:48.408Z,17.13
2022-12-28T04:43:15.189Z,16.98
2022-12-28T04:45:41.895Z,20.10
2022-12-28T04:48:08.630Z,18.92
2022-12-28T04:50:36.557Z,19.02
2022-12-28T04:53:03.347Z,16.73
2022-12-28T04:55:32.526Z,17.75
2022-12-28T04:58:00.601Z,17.13
2022-12-28T05:00:27.458Z,17.20
2022-12-28T05:02:54.320Z,20.83
2022-12-28T05:05:21.125Z,16.70
2022-12-28T05:07:47.879Z,18.83
2022-12-28T05:10:14.660Z,17.88
2022-12-28T05:12:41.530Z,17.92
2022-12-28T05:15:09.091Z,21.10
2022-12-28T05:17:35.954Z,17.95
2022-12-28T05:20:03.332Z,18.55
2022-12-28T05:22:34.030Z,17.02
2022-12-28T05:25:04.755Z,18.90
2022-12-28T05:27:32.051Z,16.48
2022-12-28T05:29:58.764Z,19.25
2022-12-28T05:32:25.547Z,19.58
2022-12-28T05:34:52.302Z,20.05
2022-12-28T05:37:22.122Z,18.90
2022-12-28T05:39:49.191Z,16.42
2022-12-28T05:42:15.942Z,18.60
2022-12-28T05:44:42.801Z,18.02
2022-12-28T05:47:09.584Z,17.13
2022-12-28T05:49:36.357Z,15.45
2022-12-28T05:52:03.092Z,16.35
2022-12-28T05:54:29.840Z,17.70
2022-12-28T05:56:56.618Z,17.77
2022-12-28T05:59:23.354Z,17.52
2022-12-28T06:01:50.263Z,16.95
2022-12-28T06:04:19.525Z,17.88
2022-12-28T06:06:47.554Z,18.48
2022-12-28T06:09:14.474Z,17.25
2022-12-28T06:11:41.311Z,14.48
2022-12-28T06:14:08.680Z,16.10
2022-12-28T06:16:38.248Z,17.02
2022-12-28T06:19:10.831Z,17.02
2022-12-28T06:21:39.654Z,18.33
2022-12-28T06:24:08.114Z,14.25
2022-12-28T06:26:36.500Z,16.80
2022-12-28T06:29:04.196Z,16.73
2022-12-28T06:31:33.791Z,15.18
2022-12-28T06:34:02.055Z,17.30
2022-12-28T06:36:31.845Z,17.13
2022-12-28T06:39:00.193Z,15.93
2022-12-28T06:41:28.121Z,16.63
2022-12-28T06:43:55.493Z,17.33
2022-12-28T06:46:24.332Z,13.68
2022-12-28T06:48:51.160Z,14.80
2022-12-28T06:51:20.994Z,14.77
2022-12-28T06:53:49.388Z,13.82
2022-12-28T06:56:22.092Z,12.57
2022-12-28T06:58:50.703Z,14.75
2022-12-28T07:01:25.725Z,15.52
2022-12-28T07:03:55.639Z,14.10
2022-12-28T07:06:25.472Z,13.43
2022-12-28T07:09:00.482Z,14.10
2022-12-28T07:11:28.901Z,14.60
2022-12-28T07:13:56.371Z,16.27
2022-12-28T07:16:25.004Z,13.60
2022-12-28T07:18:51.977Z,11.98
2022-12-28T07:21:39.642Z,12.90
2022-12-28T07:24:07.543Z,12.43
2022-12-28T07:26:36.030Z,12.77
2022-12-28T07:29:05.694Z,13.55
2022-12-28T07:31:41.622Z,13.15
2022-12-28T07:34:10.787Z,12.38
2022-12-28T07:36:37.520Z,11.75
2022-12-28T07:39:04.987Z,12.98
2022-12-28T07:41:34.001Z,14.95
2022-12-28T07:44:01.844Z,13.95
2022-12-28T07:46:32.483Z,13.18
2022-12-28T07:49:00.563Z,11.40
2022-12-28T07:51:35.713Z,11.73
2022-12-28T07:54:03.188Z,11.10
2022-12-28T07:59:00.720Z,11.90
2022-12-28T08:01:30.314Z,12.93
2022-12-28T08:04:03.047Z,12.07
2022-12-28T08:06:33.043Z,10.25
2022-12-28T08:09:00.690Z,11.65
2022-12-28T08:11:30.299Z,10.00
2022-12-28T08:13:57.993Z,11.57
2022-12-28T08:16:26.931Z,10.18
2022-12-28T08:18:54.509Z,12.55
2022-12-28T08:21:29.059Z,12.73
2022-12-28T08:23:56.901Z,12.45
2022-12-28T08:26:29.464Z,11.93
2022-12-28T08:29:00.243Z,10.18
2022-12-28T08:31:33.775Z,10.63
2022-12-28T08:34:02.389Z,9.55
2022-12-28T08:36:29.714Z,10.07
2022-12-28T08:38:57.491Z,11.57
2022-12-28T08:41:25.773Z,10.02
2022-12-28T08:43:54.089Z,9.85
2022-12-28T08:46:32.885Z,9.38
2022-12-28T08:49:00.772Z,7.97
2022-12-28T08:51:32.675Z,10.98
2022-12-28T08:54:00.153Z,9.20
2022-12-28T08:56:30.125Z,9.07
2022-12-28T08:58:57.872Z,8.82
2022-12-28T09:01:30.365Z,9.32
2022-12-28T09:03:59.541Z,9.77
2022-12-28T09:06:34.776Z,8.95
2022-12-28T09:09:05.988Z,8.23
2022-12-28T09:11:37.816Z,8.27
2022-12-28T09:14:06.595Z,8.02
2022-12-28T09:16:33.711Z,8.50
2022-12-28T09:19:02.720Z,9.02
2022-12-28T09:21:32.086Z,6.95
2022-12-28T09:23:59.123Z,8.38
2022-12-28T09:26:31.840Z,7.63
2022-12-28T09:29:00.337Z,11.90
2022-12-28T09:31:29.645Z,7.43
2022-12-28T09:36:47.382Z,8.52
2022-12-28T09:39:17.663Z,8.90
2022-12-28T09:42:08.878Z,7.88
2022-12-28T09:45:00.428Z,7.50
2022-12-28T09:47:41.032Z,7.85
2022-12-28T09:50:25.024Z,6.38
2022-12-28T09:53:29.387Z,6.80
2022-12-28T09:56:23.297Z,6.90
2022-12-28T09:58:51.550Z,6.60
2022-12-28T10:01:19.131Z,6.40
2022-12-28T10:03:47.186Z,6.57
2022-12-28T10:06:27.464Z,5.28
2022-12-28T10:09:00.204Z,10.20
2022-12-28T10:11:32.278Z,7.07
2022-12-28T10:14:03.459Z,5.90
2022-12-28T10:16:32.868Z,5.57
2022-12-28T10:19:00.442Z,6.80
2022-12-28T10:21:32.907Z,7.10
2022-12-28T10:26:48.180Z,5.35
2022-12-28T10:29:22.429Z,5.90
2022-12-28T10:32:04.277Z,5.35
2022-12-28T10:34:34.057Z,6.88
2022-12-28T10:37:14.029Z,5.20
2022-12-28T10:39:52.664Z,4.50
2022-12-28T10:42:23.707Z,5.70
2022-12-28T10:44:50.955Z,4.78
2022-12-28T10:47:29.211Z,5.25
2022-12-28T10:50:26.894Z,5.45
2022-12-28T10:52:43.653Z,4.10
2022-12-28T10:55:31.192Z,4.35
2022-12-28T10:58:31.869Z,3.42
2022-12-28T11:01:24.780Z,5.78
2022-12-28T11:04:22.144Z,3.88
2022-12-28T11:06:53.292Z,4.85
2022-12-28T11:09:28.863Z,4.53
2022-12-28T11:12:16.073Z,5.40
2022-12-28T11:14:43.156Z,4.40
2022-12-28T11:17:26.523Z,5.25
2022-12-28T11:19:56.997Z,5.28
2022-12-28T11:22:27.251Z,4.75
2022-12-28T11:24:54.940Z,3.75
2022-12-28T11:27:23.458Z,5.53
2022-12-28T11:29:52.697Z,5.43
2022-12-28T11:32:25.459Z,4.35
2022-12-28T11:34:54.640Z,3.88
2022-12-28T11:37:21.550Z,4.78
2022-12-28T11:39:50.235Z,5.07
2022-12-28T11:42:40.703Z,4.80
2022-12-28T11:45:16.530Z,4.07
2022-12-28T11:47:43.468Z,3.72
2022-12-28T11:50:36.585Z,5.10
2022-12-28T11:53:18.744Z,5.43
2022-12-28T11:55:54.573Z,3.78
2022-12-28T11:58:30.256Z,3.78
2022-12-28T12:00:59.946Z,5.30
2022-12-28T12:03:58.097Z,5.07
2022-12-28T12:06:43.205Z,4.10
2022-12-28T12:09:22.366Z,4.93
2022-12-28T12:11:53.760Z,4.75
2022-12-28T12:14:41.084Z,3.63
2022-12-28T12:17:25.682Z,4.85
2022-12-28T12:19:57.201Z,4.15
2022-12-28T12:22:25.805Z,5.30
2022-12-28T12:25:02.488Z,3.83
2022-12-28T12:27:39.909Z,3.97
2022-12-28T12:30:15.228Z,5.05
2022-12-28T12:32:56.614Z,3.78
2022-12-28T12:35:28.650Z,4.68
2022-12-28T12:38:34.260Z,3.17
2022-12-28T12:41:06.806Z,3.53
2022-12-28T12:43:50.291Z,3.67
2022-12-28T12:46:19.763Z,3.30
2022-12-28T12:49:15.028Z,5.07
2022-12-28T12:51:54.832Z,5.05
2022-12-28T12:54:39.888Z,6.32
2022-12-28T12:57:06.584Z,4.13
2022-12-28T12:59:36.045Z,5.68
2022-12-28T13:02:11.605Z,5.38
2022-12-28T13:04:41.675Z,4.90
2022-12-28T13:07:19.771Z,5.93
2022-12-28T13:09:47.621Z,7.22
2022-12-28T13:12:16.874Z,5.25
2022-12-28T13:14:46.337Z,3.22
2022-12-28T13:17:18.786Z,4.13
2022-12-28T13:19:46.245Z,4.00
2022-12-28T13:22:32.540Z,6.22
2022-12-28T13:24:59.585Z,3.83
2022-12-28T13:27:35.907Z,5.00
2022-12-28T13:30:03.995Z,4.43
2022-12-28T13:32:38.301Z,7.35
2022-12-28T13:35:20.031Z,4.10
2022-12-28T13:38:19.295Z,4.07
2022-12-28T13:40:52.270Z,4.13
2022-12-28T13:43:52.757Z,4.32
2022-12-28T13:46:21.345Z,3.30
2022-12-28T13:48:53.809Z,4.70
2022-12-28T13:51:21.830Z,4.15
2022-12-28T13:53:53.634Z,4.35
2022-12-28T13:56:22.282Z,4.72
2022-12-28T13:58:55.683Z,4.60
2022-12-28T14:04:42.544Z,5.85
2022-12-28T14:06:53.052Z,4.60
2022-12-28T14:09:21.095Z,4.82
2022-12-28T14:11:49.356Z,5.18
2022-12-28T14:14:17.048Z,5.45
2022-12-28T14:16:44.562Z,6.45
2022-12-28T14:19:11.852Z,5.10
2022-12-28T14:21:44.975Z,6.15
2022-12-28T14:24:15.850Z,7.03
2022-12-28T14:26:54.617Z,5.28
2022-12-28T14:29:32.414Z,5.70
2022-12-28T14:32:04.641Z,5.93
2022-12-28T14:34:35.061Z,5.57
2022-12-28T14:37:02.026Z,6.43
2022-12-28T14:39:31.148Z,6.47
2022-12-28T14:41:59.376Z,6.03
2022-12-28T14:44:30.732Z,5.80
2022-12-28T14:46:58.188Z,6.40
2022-12-28T14:49:31.073Z,6.55
2022-12-28T14:52:18.102Z,5.20
2022-12-28T14:54:49.838Z,5.68
2022-12-28T14:57:42.827Z,5.32
2022-12-28T15:00:30.903Z,6.63
2022-12-28T15:03:12.549Z,5.68
2022-12-28T15:05:46.290Z,6.68
2022-12-28T15:08:13.233Z,6.80
2022-12-28T15:10:53.139Z,7.97
2022-12-28T15:13:20.545Z,5.35
2022-12-28T15:16:00.936Z,5.80
2022-12-28T15:18:30.578Z,11.93
2022-12-28T15:20:57.945Z,6.30
2022-12-28T15:23:24.719Z,6.88
2022-12-28T15:25:51.551Z,5.63
2022-12-28T15:28:18.374Z,6.13
2022-12-28T15:30:45.320Z,7.10
2022-12-28T15:33:12.796Z,4.75
2022-12-28T15:35:39.576Z,5.30
2022-12-28T15:38:06.329Z,6.95
2022-12-28T15:40:34.208Z,6.93
2022-12-28T15:43:01.373Z,5.72
2022-12-28T15:45:32.348Z,5.63
2022-12-28T15:47:59.163Z,6.03
2022-12-28T15:50:25.932Z,8.68
2022-12-28T15:52:52.692Z,6.32
2022-12-28T15:55:19.580Z,9.23
2022-12-28T15:57:46.315Z,8.85
2022-12-28T16:00:18.888Z,9.20
2022-12-28T16:02:46.547Z,7.13
2022-12-28T16:05:13.734Z,7.95
2022-12-28T16:07:40.588Z,10.25
2022-12-28T16:10:08.071Z,8.00
2022-12-28T16:12:35.176Z,12.75
2022-12-28T16:15:01.962Z,8.77
2022-12-28T16:17:30.274Z,8.20
2022-12-28T16:19:57.039Z,7.88
2022-12-28T16:22:24.333Z,7.43
2022-12-28T16:24:51.060Z,6.38
2022-12-28T16:27:18.158Z,8.07
2022-12-28T16:29:46.255Z,10.88
2022-12-28T16:32:13.058Z,7.90
2022-12-28T16:34:39.987Z,7.15
2022-12-28T16:37:07.002Z,7.00
2022-12-28T16:39:33.929Z,10.07
2022-12-28T16:42:00.688Z,9.15
2022-12-28T16:44:29.263Z,6.65
2022-12-28T16:46:58.487Z,8.23
2022-12-28T16:49:26.972Z,8.55
2022-12-28T16:51:53.932Z,7.78
2022-12-28T16:54:22.815Z,8.27
2022-12-28T16:56:51.428Z,8.90
2022-12-28T16:59:26.553Z,6.93
2022-12-28T17:01:54.649Z,6.88
2022-12-28T17:04:22.225Z,8.63
2022-12-28T17:06:51.599Z,8.13
2022-12-28T17:09:19.368Z,7.93
2022-12-28T17:11:48.151Z,7.93
2022-12-28T17:14:17.515Z,7.82
2022-12-28T17:16:51.407Z,9.18
2022-12-28T17:19:18.156Z,10.95
2022-12-28T17:21:44.991Z,8.50
2022-12-28T17:24:11.812Z,11.65
2022-12-28T17:26:38.691Z,9.90
2022-12-28T17:29:05.388Z,10.15
2022-12-28T17:31:32.552Z,9.55
2022-12-28T17:34:00.271Z,8.25
2022-12-28T17:36:27.475Z,7.80
2022-12-28T17:38:54.345Z,7.25
2022-12-28T17:41:27.354Z,8.50
2022-12-28T17:43:57.087Z,7.68
2022-12-28T17:46:26.201Z,7.45
2022-12-28T17:48:55.044Z,10.00
2022-12-28T17:51:23.773Z,11.40
2022-12-28T17:53:50.813Z,10.55
2022-12-28T17:56:17.657Z,10.15
2022-12-28T17:58:45.371Z,13.32
2022-12-28T18:01:13.366Z,9.95
2022-12-28T18:03:40.566Z,7.03
2022-12-28T18:06:07.767Z,10.30
2022-12-28T18:08:34.543Z,10.80
2022-12-28T18:11:01.768Z,12.30
2022-12-28T18:13:28.783Z,12.43
2022-12-28T18:15:56.490Z,9.60
2022-12-28T18:18:23.357Z,8.27
2022-12-28T18:21:01.578Z,12.32
2022-12-28T18:23:29.407Z,7.60
2022-12-28T18:26:07.128Z,7.75
2022-12-28T18:28:34.979Z,9.40
2022-12-28T18:31:02.937Z,7.90
2022-12-28T18:33:30.999Z,8.43
2022-12-28T18:35:59.352Z,8.02
2022-12-28T18:38:26.101Z,7.75
2022-12-28T18:40:54.916Z,10.30
2022-12-28T18:43:22.032Z,8.30
2022-12-28T18:46:09.453Z,8.25
2022-12-28T18:48:38.840Z,7.50
2022-12-28T18:51:11.042Z,6.97
2022-12-28T18:53:38.595Z,9.85
2022-12-28T18:56:06.985Z,7.80
2022-12-28T18:58:37.568Z,9.30
2022-12-28T19:01:20.486Z,10.55
2022-12-28T19:03:59.060Z,8.13
2022-12-28T19:06:26.220Z,7.78
2022-12-28T19:08:53.062Z,8.43
2022-12-28T19:11:19.830Z,6.05
2022-12-28T19:13:46.652Z,7.10
2022-12-28T19:16:16.826Z,7.88
2022-12-28T19:18:43.843Z,10.05
2022-12-28T19:21:34.255Z,7.70
2022-12-28T19:24:06.833Z,8.77
2022-12-28T19:26:34.955Z,6.70
2022-12-28T19:29:03.417Z,9.07
2022-12-28T19:31:31.153Z,7.57
2022-12-28T19:33:58.207Z,7.28
2022-12-28T19:36:25.362Z,12.35
2022-12-28T19:38:56.067Z,6.70
2022-12-28T19:41:23.677Z,9.05
2022-12-28T19:43:51.059Z,8.68
2022-12-28T19:46:20.819Z,10.13
2022-12-28T19:48:47.848Z,6.25
2022-12-28T19:51:14.697Z,8.70
2022-12-28T19:53:41.901Z,6.57
2022-12-28T19:56:12.361Z,8.10
2022-12-28T19:58:39.867Z,6.55
2022-12-28T20:01:12.173Z,7.57
2022-12-28T20:03:39.819Z,7.47
2022-12-28T20:06:11.150Z,7.80
2022-12-28T20:08:38.632Z,6.57
2022-12-28T20:11:06.330Z,7.97
2022-12-28T20:13:33.801Z,6.88
2022-12-28T20:16:00.664Z,7.38
2022-12-28T20:18:27.467Z,8.13
2022-12-28T20:21:21.193Z,6.85
2022-12-28T20:23:54.015Z,8.23
2022-12-28T20:26:22.336Z,8.00
2022-12-28T20:28:50.277Z,7.32
2022-12-28T20:31:17.347Z,6.80
2022-12-28T20:33:44.350Z,5.32
2022-12-28T20:36:16.912Z,7.35
2022-12-28T20:38:43.943Z,7.78
2022-12-28T20:41:36.777Z,8.35
2022-12-28T20:44:10.248Z,8.57
2022-12-28T20:49:05.130Z,6.78
2022-12-28T20:51:31.869Z,5.85
2022-12-28T20:53:58.579Z,7.90
2022-12-28T20:56:25.378Z,5.75
2022-12-28T20:58:52.151Z,8.00
2022-12-28T21:01:19.407Z,7.03
2022-12-28T21:03:46.684Z,6.05
2022-12-28T21:06:13.549Z,4.90
2022-12-28T21:08:40.507Z,5.10
2022-12-28T21:11:07.507Z,5.57
2022-12-28T21:13:36.011Z,5.50
2022-12-28T21:16:06.819Z,5.53
2022-12-28T21:18:33.959Z,7.28
2022-12-28T21:21:01.234Z,8.57
2022-12-28T21:23:32.643Z,7.43
2022-12-28T21:26:07.821Z,7.32
2022-12-28T21:28:35.032Z,6.20
2022-12-28T21:31:04.754Z,6.88
2022-12-28T21:33:32.519Z,8.30
2022-12-28T21:36:06.883Z,6.40
2022-12-28T21:38:37.201Z,7.13
2022-12-28T21:41:06.952Z,7.45
2022-12-28T21:43:33.992Z,5.22
2022-12-28T21:46:03.589Z,5.38
2022-12-28T21:48:32.559Z,5.90
2022-12-28T21:51:31.105Z,7.13
2022-12-28T21:53:59.774Z,5.22
2022-12-28T21:56:26.974Z,5.25
2022-12-28T21:58:53.910Z,5.35
2022-12-28T22:01:39.448Z,5.30
2022-12-28T22:04:25.161Z,5.68
2022-12-28T22:06:51.904Z,5.80
2022-12-28T22:09:37.040Z,5.20
2022-12-28T22:12:22.554Z,4.88
2022-12-28T22:14:49.321Z,6.70
2022-12-28T22:17:16.582Z,4.82
2022-12-28T22:19:43.315Z,4.68
2022-12-28T22:22:10.090Z,5.57
2022-12-28T22:24:36.926Z,5.80
2022-12-28T22:27:03.732Z,4.88
2022-12-28T22:29:30.453Z,6.18
2022-12-28T22:31:57.253Z,6.00
2022-12-28T22:34:23.994Z,4.88
2022-12-28T22:36:50.754Z,5.22
2022-12-28T22:39:17.530Z,4.72
2022-12-28T22:41:44.282Z,4.95
2022-12-28T22:44:11.061Z,5.93
2022-12-28T22:46:37.896Z,4.85
2022-12-28T22:49:04.699Z,5.72
2022-12-28T22:51:31.465Z,6.03
2022-12-28T22:53:58.209Z,5.68
2022-12-28T22:56:25.049Z,7.90
2022-12-28T22:58:51.789Z,5.93
2022-12-28T23:01:19.805Z,7.20
2022-12-28T23:03:48.478Z,6.50
2022-12-28T23:06:18.514Z,6.10
2022-12-28T23:08:45.879Z,5.50
2022-12-28T23:11:34.138Z,5.43
2022-12-28T23:14:20.180Z,6.40
2022-12-28T23:16:47.967Z,5.88
2022-12-28T23:19:33.817Z,7.13
2022-12-28T23:22:20.415Z,5.85
2022-12-28T23:25:13.136Z,5.90
2022-12-28T23:27:43.241Z,5.47
2022-12-28T23:30:17.539Z,6.00
2022-12-28T23:32:48.956Z,7.10
2022-12-28T23:35:17.868Z,6.03
2022-12-28T23:37:45.375Z,5.07
2022-12-28T23:40:14.071Z,6.82
2022-12-28T23:42:41.746Z,6.18
2022-12-28T23:45:10.877Z,5.43
2022-12-28T23:47:38.071Z,6.90
2022-12-28T23:50:06.089Z,6.40
2022-12-28T23:52:32.933Z,4.90
2022-12-28T23:54:59.743Z,6.00
2022-12-28T23:57:26.645Z,6.32
2022-12-28T23:59:53.431Z,5.80
